sensor_id;sensor_type;location;lat;lon;timestamp;P1;durP1;ratioP1;P2;durP2;ratioP2
42854;SDS011;29183;48.038;14.346;2022-08-19T00:00:08;7.70;;;3.75;;
42854;SDS011;29183;48.038;14.346;2022-08-19T00:02:38;6.88;;;4.13;;
42854;SDS011;29183;48.038;14.346;2022-08-19T00:05:16;9.98;;;4.28;;
42854;SDS011;29183;48.038;14.346;2022-08-19T00:07:46;13.57;;;4.03;;
42854;SDS011;29183;48.038;14.346;2022-08-19T00:10:15;11.60;;;4.53;;
42854;SDS011;29183;48.038;14.346;2022-08-19T00:12:44;9.55;;;3.50;;
42854;SDS011;29183;48.038;14.346;2022-08-19T00:15:14;14.85;;;4.13;;
42854;SDS011;29183;48.038;14.346;2022-08-19T00:20:14;12.45;;;4.28;;
42854;SDS011;29183;48.038;14.346;2022-08-19T00:22:45;8.30;;;3.88;;
42854;SDS011;29183;48.038;14.346;2022-08-19T00:25:15;12.00;;;3.33;;
42854;SDS011;29183;48.038;14.346;2022-08-19T00:27:55;13.57;;;4.50;;
42854;SDS011;29183;48.038;14.346;2022-08-19T00:30:24;11.48;;;5.03;;
42854;SDS011;29183;48.038;14.346;2022-08-19T00:32:55;15.15;;;4.72;;
42854;SDS011;29183;48.038;14.346;2022-08-19T00:35:24;10.95;;;3.90;;
42854;SDS011;29183;48.038;14.346;2022-08-19T00:37:53;14.48;;;4.35;;
42854;SDS011;29183;48.038;14.346;2022-08-19T00:40:21;14.75;;;4.63;;
42854;SDS011;29183;48.038;14.346;2022-08-19T00:42:50;12.93;;;5.15;;
42854;SDS011;29183;48.038;14.346;2022-08-19T00:45:22;14.85;;;4.78;;
42854;SDS011;29183;48.038;14.346;2022-08-19T00:47:53;13.50;;;5.22;;
42854;SDS011;29183;48.038;14.346;2022-08-19T00:50:21;14.10;;;5.97;;
42854;SDS011;29183;48.038;14.346;2022-08-19T00:52:50;8.70;;;4.38;;
42854;SDS011;29183;48.038;14.346;2022-08-19T00:55:20;11.95;;;4.85;;
42854;SDS011;29183;48.038;14.346;2022-08-19T00:57:56;13.95;;;5.35;;
42854;SDS011;29183;48.038;14.346;2022-08-19T01:00:37;9.38;;;4.35;;
42854;SDS011;29183;48.038;14.346;2022-08-19T01:03:07;13.25;;;5.65;;
42854;SDS011;29183;48.038;14.346;2022-08-19T01:05:37;14.30;;;5.03;;
42854;SDS011;29183;48.038;14.346;2022-08-19T01:08:08;16.88;;;5.10;;
42854;SDS011;29183;48.038;14.346;2022-08-19T01:10:40;14.77;;;5.07;;
42854;SDS011;29183;48.038;14.346;2022-08-19T01:13:21;11.23;;;5.00;;
42854;SDS011;29183;48.038;14.346;2022-08-19T01:15:53;11.68;;;5.57;;
42854;SDS011;29183;48.038;14.346;2022-08-19T01:18:25;16.73;;;5.97;;
42854;SDS011;29183;48.038;14.346;2022-08-19T01:20:56;12.30;;;5.85;;
42854;SDS011;29183;48.038;14.346;2022-08-19T01:23:29;16.48;;;6.20;;
42854;SDS011;29183;48.038;14.346;2022-08-19T01:26:14;13.57;;;5.80;;
42854;SDS011;29183;48.038;14.346;2022-08-19T01:28:45;12.35;;;6.38;;
42854;SDS011;29183;48.038;14.346;2022-08-19T01:31:19;13.70;;;5.20;;
42854;SDS011;29183;48.038;14.346;2022-08-19T01:33:53;13.65;;;4.97;;
42854;SDS011;29183;48.038;14.346;2022-08-19T01:36:34;12.85;;;6.15;;
42854;SDS011;29183;48.038;14.346;2022-08-19T01:39:06;15.23;;;6.10;;
42854;SDS011;29183;48.038;14.346;2022-08-19T01:41:37;12.45;;;6.18;;
42854;SDS011;29183;48.038;14.346;2022-08-19T01:44:07;13.63;;;6.57;;
42854;SDS011;29183;48.038;14.346;2022-08-19T01:46:45;15.00;;;5.68;;
42854;SDS011;29183;48.038;14.346;2022-08-19T01:49:16;15.55;;;5.75;;
42854;SDS011;29183;48.038;14.346;2022-08-19T01:51:47;16.48;;;5.28;;
42854;SDS011;29183;48.038;14.346;2022-08-19T01:54:17;17.17;;;6.05;;
42854;SDS011;29183;48.038;14.346;2022-08-19T01:56:54;15.57;;;6.80;;
42854;SDS011;29183;48.038;14.346;2022-08-19T01:59:27;17.48;;;6.75;;
42854;SDS011;29183;48.038;14.346;2022-08-19T02:01:55;13.00;;;5.53;;
42854;SDS011;29183;48.038;14.346;2022-08-19T02:04:24;13.40;;;6.50;;
42854;SDS011;29183;48.038;14.346;2022-08-19T02:06:53;10.05;;;6.03;;
42854;SDS011;29183;48.038;14.346;2022-08-19T02:09:21;14.57;;;6.60;;
42854;SDS011;29183;48.038;14.346;2022-08-19T02:11:49;16.67;;;6.15;;
42854;SDS011;29183;48.038;14.346;2022-08-19T02:14:18;11.65;;;6.22;;
42854;SDS011;29183;48.038;14.346;2022-08-19T02:16:46;14.43;;;6.43;;
42854;SDS011;29183;48.038;14.346;2022-08-19T02:19:14;14.40;;;7.15;;
42854;SDS011;29183;48.038;14.346;2022-08-19T02:21:42;16.05;;;6.22;;
42854;SDS011;29183;48.038;14.346;2022-08-19T02:24:11;19.00;;;7.43;;
42854;SDS011;29183;48.038;14.346;2022-08-19T02:26:39;12.13;;;6.50;;
42854;SDS011;29183;48.038;14.346;2022-08-19T02:29:07;12.95;;;6.47;;
42854;SDS011;29183;48.038;14.346;2022-08-19T02:31:35;16.00;;;6.45;;
42854;SDS011;29183;48.038;14.346;2022-08-19T02:34:03;12.68;;;6.82;;
42854;SDS011;29183;48.038;14.346;2022-08-19T02:36:33;15.95;;;7.22;;
42854;SDS011;29183;48.038;14.346;2022-08-19T02:39:01;10.85;;;6.57;;
42854;SDS011;29183;48.038;14.346;2022-08-19T02:41:31;12.98;;;6.28;;
42854;SDS011;29183;48.038;14.346;2022-08-19T02:44:01;9.93;;;6.00;;
42854;SDS011;29183;48.038;14.346;2022-08-19T02:46:51;11.25;;;5.97;;
42854;SDS011;29183;48.038;14.346;2022-08-19T02:49:19;13.73;;;6.38;;
42854;SDS011;29183;48.038;14.346;2022-08-19T02:51:47;14.88;;;6.57;;
42854;SDS011;29183;48.038;14.346;2022-08-19T02:54:15;12.95;;;5.72;;
42854;SDS011;29183;48.038;14.346;2022-08-19T02:56:44;10.82;;;6.30;;
42854;SDS011;29183;48.038;14.346;2022-08-19T02:59:13;13.18;;;6.15;;
42854;SDS011;29183;48.038;14.346;2022-08-19T03:01:42;13.00;;;6.00;;
42854;SDS011;29183;48.038;14.346;2022-08-19T03:04:12;13.80;;;6.65;;
42854;SDS011;29183;48.038;14.346;2022-08-19T03:06:44;14.30;;;7.53;;
42854;SDS011;29183;48.038;14.346;2022-08-19T03:09:14;13.10;;;6.40;;
42854;SDS011;29183;48.038;14.346;2022-08-19T03:11:43;16.67;;;5.90;;
42854;SDS011;29183;48.038;14.346;2022-08-19T03:14:14;13.93;;;6.05;;
42854;SDS011;29183;48.038;14.346;2022-08-19T03:16:46;12.43;;;6.80;;
42854;SDS011;29183;48.038;14.346;2022-08-19T03:19:18;13.90;;;7.97;;
42854;SDS011;29183;48.038;14.346;2022-08-19T03:21:48;15.73;;;8.00;;
42854;SDS011;29183;48.038;14.346;2022-08-19T03:24:18;10.93;;;6.43;;
42854;SDS011;29183;48.038;14.346;2022-08-19T03:26:49;13.13;;;6.65;;
42854;SDS011;29183;48.038;14.346;2022-08-19T03:29:19;12.75;;;6.75;;
42854;SDS011;29183;48.038;14.346;2022-08-19T03:31:58;11.90;;;6.45;;
42854;SDS011;29183;48.038;14.346;2022-08-19T03:34:31;15.57;;;7.13;;
42854;SDS011;29183;48.038;14.346;2022-08-19T03:37:03;11.75;;;7.25;;
42854;SDS011;29183;48.038;14.346;2022-08-19T03:39:36;13.38;;;7.63;;
42854;SDS011;29183;48.038;14.346;2022-08-19T03:42:05;12.98;;;6.88;;
42854;SDS011;29183;48.038;14.346;2022-08-19T03:44:54;12.32;;;6.65;;
42854;SDS011;29183;48.038;14.346;2022-08-19T03:47:23;13.02;;;7.43;;
42854;SDS011;29183;48.038;14.346;2022-08-19T03:49:51;14.93;;;7.07;;
42854;SDS011;29183;48.038;14.346;2022-08-19T03:52:19;15.52;;;7.15;;
42854;SDS011;29183;48.038;14.346;2022-08-19T03:54:48;13.95;;;7.28;;
42854;SDS011;29183;48.038;14.346;2022-08-19T03:57:16;17.27;;;8.63;;
42854;SDS011;29183;48.038;14.346;2022-08-19T03:59:43;18.40;;;8.43;;
42854;SDS011;29183;48.038;14.346;2022-08-19T04:02:12;16.10;;;7.80;;
42854;SDS011;29183;48.038;14.346;2022-08-19T04:04:42;15.90;;;7.80;;
42854;SDS011;29183;48.038;14.346;2022-08-19T04:07:12;18.73;;;7.82;;
42854;SDS011;29183;48.038;14.346;2022-08-19T04:09:43;14.18;;;7.30;;
42854;SDS011;29183;48.038;14.346;2022-08-19T04:12:12;20.38;;;7.93;;
42854;SDS011;29183;48.038;14.346;2022-08-19T04:14:40;13.73;;;7.40;;
42854;SDS011;29183;48.038;14.346;2022-08-19T04:17:08;14.07;;;7.65;;
42854;SDS011;29183;48.038;14.346;2022-08-19T04:19:37;13.13;;;7.05;;
42854;SDS011;29183;48.038;14.346;2022-08-19T04:22:06;20.63;;;7.30;;
42854;SDS011;29183;48.038;14.346;2022-08-19T04:24:34;15.05;;;7.18;;
42854;SDS011;29183;48.038;14.346;2022-08-19T04:27:03;13.70;;;7.47;;
42854;SDS011;29183;48.038;14.346;2022-08-19T04:29:33;15.80;;;8.48;;
42854;SDS011;29183;48.038;14.346;2022-08-19T04:32:02;13.60;;;8.38;;
42854;SDS011;29183;48.038;14.346;2022-08-19T04:34:35;16.77;;;9.13;;
42854;SDS011;29183;48.038;14.346;2022-08-19T04:37:25;16.17;;;10.20;;
42854;SDS011;29183;48.038;14.346;2022-08-19T04:40:01;19.15;;;10.10;;
42854;SDS011;29183;48.038;14.346;2022-08-19T04:42:49;18.45;;;11.05;;
42854;SDS011;29183;48.038;14.346;2022-08-19T04:45:17;20.38;;;11.20;;
42854;SDS011;29183;48.038;14.346;2022-08-19T04:47:48;16.45;;;10.05;;
42854;SDS011;29183;48.038;14.346;2022-08-19T04:50:39;19.33;;;9.25;;
42854;SDS011;29183;48.038;14.346;2022-08-19T04:53:09;18.05;;;11.73;;
42854;SDS011;29183;48.038;14.346;2022-08-19T04:55:40;21.55;;;12.75;;
42854;SDS011;29183;48.038;14.346;2022-08-19T04:58:08;18.73;;;11.82;;
42854;SDS011;29183;48.038;14.346;2022-08-19T05:00:38;19.83;;;11.43;;
42854;SDS011;29183;48.038;14.346;2022-08-19T05:03:10;20.98;;;11.65;;
42854;SDS011;29183;48.038;14.346;2022-08-19T05:05:40;23.48;;;12.23;;
42854;SDS011;29183;48.038;14.346;2022-08-19T05:08:11;19.70;;;12.52;;
42854;SDS011;29183;48.038;14.346;2022-08-19T05:10:40;20.27;;;11.60;;
42854;SDS011;29183;48.038;14.346;2022-08-19T05:13:08;18.42;;;11.57;;
42854;SDS011;29183;48.038;14.346;2022-08-19T05:15:38;18.65;;;11.80;;
42854;SDS011;29183;48.038;14.346;2022-08-19T05:18:06;19.45;;;11.60;;
42854;SDS011;29183;48.038;14.346;2022-08-19T05:20:53;22.98;;;13.85;;
42854;SDS011;29183;48.038;14.346;2022-08-19T05:23:40;17.52;;;12.48;;
42854;SDS011;29183;48.038;14.346;2022-08-19T05:26:09;17.83;;;12.32;;
42854;SDS011;29183;48.038;14.346;2022-08-19T05:28:38;19.65;;;13.73;;
42854;SDS011;29183;48.038;14.346;2022-08-19T05:31:06;21.40;;;13.40;;
42854;SDS011;29183;48.038;14.346;2022-08-19T05:33:35;20.77;;;12.05;;
42854;SDS011;29183;48.038;14.346;2022-08-19T05:36:03;18.45;;;12.63;;
42854;SDS011;29183;48.038;14.346;2022-08-19T05:38:32;18.58;;;13.10;;
42854;SDS011;29183;48.038;14.346;2022-08-19T05:41:05;20.70;;;13.13;;
42854;SDS011;29183;48.038;14.346;2022-08-19T05:43:37;23.92;;;12.98;;
42854;SDS011;29183;48.038;14.346;2022-08-19T05:46:05;23.25;;;13.48;;
42854;SDS011;29183;48.038;14.346;2022-08-19T05:48:35;22.38;;;13.10;;
42854;SDS011;29183;48.038;14.346;2022-08-19T05:51:07;19.95;;;13.15;;
42854;SDS011;29183;48.038;14.346;2022-08-19T05:53:35;25.38;;;14.27;;
42854;SDS011;29183;48.038;14.346;2022-08-19T05:56:05;22.75;;;14.60;;
42854;SDS011;29183;48.038;14.346;2022-08-19T05:58:34;21.95;;;15.45;;
42854;SDS011;29183;48.038;14.346;2022-08-19T06:01:04;21.85;;;14.75;;
42854;SDS011;29183;48.038;14.346;2022-08-19T06:03:37;22.35;;;15.88;;
42854;SDS011;29183;48.038;14.346;2022-08-19T06:06:08;20.23;;;14.30;;
42854;SDS011;29183;48.038;14.346;2022-08-19T06:08:37;22.23;;;15.13;;
42854;SDS011;29183;48.038;14.346;2022-08-19T06:11:22;22.08;;;15.02;;
42854;SDS011;29183;48.038;14.346;2022-08-19T06:14:10;18.88;;;13.90;;
42854;SDS011;29183;48.038;14.346;2022-08-19T06:16:42;21.50;;;15.63;;
42854;SDS011;29183;48.038;14.346;2022-08-19T06:19:12;23.63;;;15.80;;
42854;SDS011;29183;48.038;14.346;2022-08-19T06:21:45;23.73;;;15.95;;
42854;SDS011;29183;48.038;14.346;2022-08-19T06:24:16;26.48;;;15.88;;
42854;SDS011;29183;48.038;14.346;2022-08-19T06:26:47;23.85;;;16.25;;
42854;SDS011;29183;48.038;14.346;2022-08-19T06:31:51;26.98;;;16.73;;
42854;SDS011;29183;48.038;14.346;2022-08-19T06:34:21;24.92;;;16.40;;
42854;SDS011;29183;48.038;14.346;2022-08-19T06:36:51;27.10;;;15.75;;
42854;SDS011;29183;48.038;14.346;2022-08-19T06:39:22;27.15;;;16.73;;
42854;SDS011;29183;48.038;14.346;2022-08-19T06:41:53;22.48;;;15.95;;
42854;SDS011;29183;48.038;14.346;2022-08-19T06:44:25;25.35;;;16.27;;
42854;SDS011;29183;48.038;14.346;2022-08-19T06:46:57;22.33;;;14.15;;
42854;SDS011;29183;48.038;14.346;2022-08-19T06:49:25;24.05;;;15.45;;
42854;SDS011;29183;48.038;14.346;2022-08-19T06:51:59;24.48;;;16.00;;
42854;SDS011;29183;48.038;14.346;2022-08-19T06:54:28;24.35;;;16.00;;
42854;SDS011;29183;48.038;14.346;2022-08-19T06:57:05;22.85;;;15.93;;
42854;SDS011;29183;48.038;14.346;2022-08-19T06:59:35;26.20;;;15.70;;
42854;SDS011;29183;48.038;14.346;2022-08-19T07:02:04;22.73;;;15.32;;
42854;SDS011;29183;48.038;14.346;2022-08-19T07:04:34;20.35;;;14.05;;
42854;SDS011;29183;48.038;14.346;2022-08-19T07:07:09;25.33;;;14.90;;
42854;SDS011;29183;48.038;14.346;2022-08-19T07:09:47;25.45;;;15.45;;
42854;SDS011;29183;48.038;14.346;2022-08-19T07:12:26;29.85;;;18.35;;
42854;SDS011;29183;48.038;14.346;2022-08-19T07:14:56;24.15;;;15.98;;
42854;SDS011;29183;48.038;14.346;2022-08-19T07:17:25;24.15;;;15.68;;
42854;SDS011;29183;48.038;14.346;2022-08-19T07:19:54;24.60;;;16.90;;
42854;SDS011;29183;48.038;14.346;2022-08-19T07:22:30;28.23;;;17.35;;
42854;SDS011;29183;48.038;14.346;2022-08-19T07:24:59;24.88;;;16.50;;
42854;SDS011;29183;48.038;14.346;2022-08-19T07:27:28;27.40;;;18.02;;
42854;SDS011;29183;48.038;14.346;2022-08-19T07:29:59;27.08;;;17.27;;
42854;SDS011;29183;48.038;14.346;2022-08-19T07:32:27;23.60;;;16.45;;
42854;SDS011;29183;48.038;14.346;2022-08-19T07:34:56;27.70;;;16.85;;
42854;SDS011;29183;48.038;14.346;2022-08-19T07:37:25;33.30;;;17.48;;
42854;SDS011;29183;48.038;14.346;2022-08-19T07:39:59;27.05;;;18.17;;
42854;SDS011;29183;48.038;14.346;2022-08-19T07:42:28;27.15;;;17.60;;
42854;SDS011;29183;48.038;14.346;2022-08-19T07:44:57;27.80;;;18.08;;
42854;SDS011;29183;48.038;14.346;2022-08-19T07:47:26;30.42;;;17.88;;
42854;SDS011;29183;48.038;14.346;2022-08-19T07:50:16;25.48;;;17.48;;
42854;SDS011;29183;48.038;14.346;2022-08-19T07:55:21;22.35;;;15.55;;
42854;SDS011;29183;48.038;14.346;2022-08-19T07:58:09;29.67;;;18.33;;
42854;SDS011;29183;48.038;14.346;2022-08-19T08:00:42;33.45;;;18.45;;
42854;SDS011;29183;48.038;14.346;2022-08-19T08:03:11;27.92;;;18.20;;
42854;SDS011;29183;48.038;14.346;2022-08-19T08:05:40;28.27;;;18.13;;
42854;SDS011;29183;48.038;14.346;2022-08-19T08:08:27;28.45;;;18.33;;
42854;SDS011;29183;48.038;14.346;2022-08-19T08:11:16;26.95;;;16.77;;
42854;SDS011;29183;48.038;14.346;2022-08-19T08:13:49;30.60;;;17.58;;
42854;SDS011;29183;48.038;14.346;2022-08-19T08:16:29;25.42;;;16.88;;
42854;SDS011;29183;48.038;14.346;2022-08-19T08:19:12;23.77;;;14.80;;
42854;SDS011;29183;48.038;14.346;2022-08-19T08:21:51;28.35;;;16.20;;
42854;SDS011;29183;48.038;14.346;2022-08-19T08:24:22;21.90;;;14.02;;
42854;SDS011;29183;48.038;14.346;2022-08-19T08:26:54;25.13;;;14.80;;
42854;SDS011;29183;48.038;14.346;2022-08-19T08:29:24;21.65;;;14.85;;
42854;SDS011;29183;48.038;14.346;2022-08-19T08:32:00;22.00;;;14.18;;
42854;SDS011;29183;48.038;14.346;2022-08-19T08:34:39;22.52;;;15.02;;
42854;SDS011;29183;48.038;14.346;2022-08-19T08:37:08;17.42;;;12.43;;
42854;SDS011;29183;48.038;14.346;2022-08-19T08:39:36;18.98;;;13.05;;
42854;SDS011;29183;48.038;14.346;2022-08-19T08:42:17;22.67;;;16.10;;
42854;SDS011;29183;48.038;14.346;2022-08-19T08:44:57;19.33;;;14.00;;
42854;SDS011;29183;48.038;14.346;2022-08-19T08:47:36;22.52;;;15.95;;
42854;SDS011;29183;48.038;14.346;2022-08-19T08:50:10;22.73;;;15.07;;
42854;SDS011;29183;48.038;14.346;2022-08-19T08:52:46;20.17;;;13.95;;
42854;SDS011;29183;48.038;14.346;2022-08-19T08:55:21;20.52;;;13.70;;
42854;SDS011;29183;48.038;14.346;2022-08-19T08:57:56;19.63;;;12.88;;
42854;SDS011;29183;48.038;14.346;2022-08-19T09:00:39;17.00;;;12.73;;
42854;SDS011;29183;48.038;14.346;2022-08-19T09:03:16;19.77;;;13.35;;
42854;SDS011;29183;48.038;14.346;2022-08-19T09:11:43;23.85;;;15.75;;
42854;SDS011;29183;48.038;14.346;2022-08-19T09:14:32;18.83;;;13.60;;
42854;SDS011;29183;48.038;14.346;2022-08-19T09:17:16;20.00;;;13.65;;
42854;SDS011;29183;48.038;14.346;2022-08-19T09:19:50;19.65;;;12.70;;
42854;SDS011;29183;48.038;14.346;2022-08-19T09:22:30;16.98;;;12.45;;
42854;SDS011;29183;48.038;14.346;2022-08-19T09:24:58;20.65;;;14.15;;
42854;SDS011;29183;48.038;14.346;2022-08-19T09:27:27;19.90;;;14.07;;
42854;SDS011;29183;48.038;14.346;2022-08-19T09:32:39;20.42;;;12.40;;
42854;SDS011;29183;48.038;14.346;2022-08-19T09:35:10;16.23;;;11.60;;
42854;SDS011;29183;48.038;14.346;2022-08-19T09:37:38;18.67;;;13.20;;
42854;SDS011;29183;48.038;14.346;2022-08-19T09:40:06;17.25;;;12.50;;
42854;SDS011;29183;48.038;14.346;2022-08-19T09:42:37;21.65;;;13.95;;
42854;SDS011;29183;48.038;14.346;2022-08-19T09:45:17;16.55;;;11.25;;
42854;SDS011;29183;48.038;14.346;2022-08-19T09:47:52;17.20;;;11.82;;
42854;SDS011;29183;48.038;14.346;2022-08-19T09:50:21;18.25;;;13.60;;
42854;SDS011;29183;48.038;14.346;2022-08-19T09:52:51;15.45;;;11.15;;
42854;SDS011;29183;48.038;14.346;2022-08-19T09:55:23;17.10;;;13.00;;
42854;SDS011;29183;48.038;14.346;2022-08-19T09:57:58;18.27;;;13.98;;
42854;SDS011;29183;48.038;14.346;2022-08-19T10:00:30;21.15;;;14.70;;
42854;SDS011;29183;48.038;14.346;2022-08-19T10:02:59;17.25;;;12.32;;
42854;SDS011;29183;48.038;14.346;2022-08-19T10:05:28;20.92;;;14.43;;
42854;SDS011;29183;48.038;14.346;2022-08-19T10:08:25;17.25;;;12.35;;
42854;SDS011;29183;48.038;14.346;2022-08-19T10:10:59;20.52;;;14.20;;
42854;SDS011;29183;48.038;14.346;2022-08-19T10:13:49;22.60;;;14.55;;
42854;SDS011;29183;48.038;14.346;2022-08-19T10:16:18;18.27;;;13.88;;
42854;SDS011;29183;48.038;14.346;2022-08-19T10:18:55;21.25;;;15.07;;
42854;SDS011;29183;48.038;14.346;2022-08-19T10:21:28;20.55;;;14.50;;
42854;SDS011;29183;48.038;14.346;2022-08-19T10:23:59;19.45;;;13.57;;
42854;SDS011;29183;48.038;14.346;2022-08-19T10:26:35;22.20;;;13.30;;
42854;SDS011;29183;48.038;14.346;2022-08-19T10:29:05;18.45;;;13.50;;
42854;SDS011;29183;48.038;14.346;2022-08-19T10:31:35;20.48;;;14.13;;
42854;SDS011;29183;48.038;14.346;2022-08-19T10:34:23;19.40;;;13.82;;
42854;SDS011;29183;48.038;14.346;2022-08-19T10:36:54;22.38;;;14.85;;
42854;SDS011;29183;48.038;14.346;2022-08-19T10:39:27;22.15;;;15.13;;
42854;SDS011;29183;48.038;14.346;2022-08-19T10:42:07;19.38;;;13.50;;
42854;SDS011;29183;48.038;14.346;2022-08-19T10:44:38;16.02;;;12.15;;
42854;SDS011;29183;48.038;14.346;2022-08-19T10:47:07;16.95;;;11.50;;
42854;SDS011;29183;48.038;14.346;2022-08-19T10:49:51;17.08;;;12.25;;
42854;SDS011;29183;48.038;14.346;2022-08-19T10:52:41;23.50;;;16.02;;
42854;SDS011;29183;48.038;14.346;2022-08-19T10:55:17;27.55;;;16.38;;
42854;SDS011;29183;48.038;14.346;2022-08-19T10:58:13;21.63;;;14.25;;
42854;SDS011;29183;48.038;14.346;2022-08-19T11:00:43;19.15;;;14.63;;
42854;SDS011;29183;48.038;14.346;2022-08-19T11:03:20;19.02;;;14.65;;
42854;SDS011;29183;48.038;14.346;2022-08-19T11:05:58;21.25;;;15.23;;
42854;SDS011;29183;48.038;14.346;2022-08-19T11:08:36;23.20;;;14.32;;
42854;SDS011;29183;48.038;14.346;2022-08-19T11:11:06;17.27;;;12.77;;
42854;SDS011;29183;48.038;14.346;2022-08-19T11:13:36;21.52;;;14.73;;
42854;SDS011;29183;48.038;14.346;2022-08-19T11:16:14;18.65;;;14.50;;
42854;SDS011;29183;48.038;14.346;2022-08-19T11:18:48;18.58;;;12.15;;
42854;SDS011;29183;48.038;14.346;2022-08-19T11:23:47;17.67;;;12.93;;
42854;SDS011;29183;48.038;14.346;2022-08-19T11:26:17;21.15;;;14.05;;
42854;SDS011;29183;48.038;14.346;2022-08-19T11:28:48;16.45;;;12.43;;
42854;SDS011;29183;48.038;14.346;2022-08-19T11:31:21;16.55;;;10.68;;
42854;SDS011;29183;48.038;14.346;2022-08-19T11:33:55;13.43;;;11.00;;
42854;SDS011;29183;48.038;14.346;2022-08-19T11:36:25;18.83;;;12.52;;
42854;SDS011;29183;48.038;14.346;2022-08-19T11:38:54;16.85;;;12.27;;
42854;SDS011;29183;48.038;14.346;2022-08-19T11:41:23;14.23;;;10.75;;
42854;SDS011;29183;48.038;14.346;2022-08-19T11:43:52;14.55;;;11.50;;
42854;SDS011;29183;48.038;14.346;2022-08-19T11:46:23;15.10;;;10.73;;
42854;SDS011;29183;48.038;14.346;2022-08-19T11:48:52;18.45;;;11.30;;
42854;SDS011;29183;48.038;14.346;2022-08-19T11:51:23;15.23;;;10.55;;
42854;SDS011;29183;48.038;14.346;2022-08-19T11:53:53;19.70;;;12.68;;
42854;SDS011;29183;48.038;14.346;2022-08-19T11:56:23;14.68;;;11.15;;
42854;SDS011;29183;48.038;14.346;2022-08-19T11:58:52;15.43;;;10.80;;
42854;SDS011;29183;48.038;14.346;2022-08-19T12:01:22;16.33;;;9.57;;
42854;SDS011;29183;48.038;14.346;2022-08-19T12:03:52;13.80;;;10.80;;
42854;SDS011;29183;48.038;14.346;2022-08-19T12:06:23;15.60;;;11.50;;
42854;SDS011;29183;48.038;14.346;2022-08-19T12:08:55;13.02;;;9.90;;
42854;SDS011;29183;48.038;14.346;2022-08-19T12:11:26;21.02;;;13.07;;
42854;SDS011;29183;48.038;14.346;2022-08-19T12:14:00;12.85;;;10.10;;
42854;SDS011;29183;48.038;14.346;2022-08-19T12:16:29;18.08;;;11.75;;
42854;SDS011;29183;48.038;14.346;2022-08-19T12:18:59;15.77;;;11.27;;
42854;SDS011;29183;48.038;14.346;2022-08-19T12:21:32;15.85;;;12.23;;
42854;SDS011;29183;48.038;14.346;2022-08-19T12:24:02;13.82;;;10.68;;
42854;SDS011;29183;48.038;14.346;2022-08-19T12:29:19;20.67;;;14.02;;
42854;SDS011;29183;48.038;14.346;2022-08-19T12:31:50;18.90;;;13.07;;
42854;SDS011;29183;48.038;14.346;2022-08-19T12:34:18;17.38;;;12.63;;
42854;SDS011;29183;48.038;14.346;2022-08-19T12:36:47;15.45;;;10.75;;
42854;SDS011;29183;48.038;14.346;2022-08-19T12:39:17;19.77;;;12.38;;
42854;SDS011;29183;48.038;14.346;2022-08-19T12:41:45;19.05;;;12.77;;
42854;SDS011;29183;48.038;14.346;2022-08-19T12:44:20;13.93;;;10.20;;
42854;SDS011;29183;48.038;14.346;2022-08-19T12:46:57;20.33;;;13.05;;
42854;SDS011;29183;48.038;14.346;2022-08-19T12:49:29;18.13;;;13.60;;
42854;SDS011;29183;48.038;14.346;2022-08-19T12:52:18;19.08;;;12.27;;
42854;SDS011;29183;48.038;14.346;2022-08-19T12:54:49;20.10;;;13.57;;
42854;SDS011;29183;48.038;14.346;2022-08-19T12:57:20;17.60;;;12.20;;
42854;SDS011;29183;48.038;14.346;2022-08-19T13:00:12;14.85;;;11.23;;
42854;SDS011;29183;48.038;14.346;2022-08-19T13:02:44;15.80;;;10.52;;
42854;SDS011;29183;48.038;14.346;2022-08-19T13:05:15;15.75;;;11.35;;
42854;SDS011;29183;48.038;14.346;2022-08-19T13:07:49;17.27;;;12.63;;
42854;SDS011;29183;48.038;14.346;2022-08-19T13:10:20;15.40;;;10.35;;
42854;SDS011;29183;48.038;14.346;2022-08-19T13:12:50;18.13;;;12.10;;
42854;SDS011;29183;48.038;14.346;2022-08-19T13:15:19;16.23;;;12.10;;
42854;SDS011;29183;48.038;14.346;2022-08-19T13:17:50;16.70;;;12.88;;
42854;SDS011;29183;48.038;14.346;2022-08-19T13:20:20;17.65;;;11.73;;
42854;SDS011;29183;48.038;14.346;2022-08-19T13:22:49;14.25;;;10.73;;
42854;SDS011;29183;48.038;14.346;2022-08-19T13:25:18;15.27;;;11.07;;
42854;SDS011;29183;48.038;14.346;2022-08-19T13:27:48;18.88;;;11.27;;
42854;SDS011;29183;48.038;14.346;2022-08-19T13:30:17;16.40;;;11.85;;
42854;SDS011;29183;48.038;14.346;2022-08-19T13:33:05;16.25;;;11.35;;
42854;SDS011;29183;48.038;14.346;2022-08-19T13:35:50;17.60;;;12.07;;
42854;SDS011;29183;48.038;14.346;2022-08-19T13:38:24;15.02;;;10.80;;
42854;SDS011;29183;48.038;14.346;2022-08-19T13:40:53;16.08;;;10.60;;
42854;SDS011;29183;48.038;14.346;2022-08-19T13:43:24;15.63;;;11.80;;
42854;SDS011;29183;48.038;14.346;2022-08-19T13:45:54;16.85;;;11.43;;
42854;SDS011;29183;48.038;14.346;2022-08-19T13:50:58;14.20;;;10.50;;
42854;SDS011;29183;48.038;14.346;2022-08-19T13:53:26;12.93;;;9.35;;
42854;SDS011;29183;48.038;14.346;2022-08-19T13:55:54;13.45;;;10.75;;
42854;SDS011;29183;48.038;14.346;2022-08-19T13:58:22;13.40;;;10.02;;
42854;SDS011;29183;48.038;14.346;2022-08-19T14:00:50;15.45;;;10.70;;
42854;SDS011;29183;48.038;14.346;2022-08-19T14:03:19;15.35;;;10.50;;
42854;SDS011;29183;48.038;14.346;2022-08-19T14:05:47;17.02;;;11.02;;
42854;SDS011;29183;48.038;14.346;2022-08-19T14:08:15;15.13;;;10.13;;
42854;SDS011;29183;48.038;14.346;2022-08-19T14:10:44;14.77;;;10.60;;
42854;SDS011;29183;48.038;14.346;2022-08-19T14:13:14;12.95;;;9.88;;
42854;SDS011;29183;48.038;14.346;2022-08-19T14:15:43;12.60;;;10.55;;
42854;SDS011;29183;48.038;14.346;2022-08-19T14:18:12;14.93;;;10.10;;
42854;SDS011;29183;48.038;14.346;2022-08-19T14:20:42;12.18;;;10.25;;
42854;SDS011;29183;48.038;14.346;2022-08-19T14:23:10;19.67;;;10.95;;
42854;SDS011;29183;48.038;14.346;2022-08-19T14:25:41;13.25;;;9.93;;
42854;SDS011;29183;48.038;14.346;2022-08-19T14:28:10;18.80;;;10.35;;
42854;SDS011;29183;48.038;14.346;2022-08-19T14:30:38;12.15;;;9.90;;
42854;SDS011;29183;48.038;14.346;2022-08-19T14:33:06;12.57;;;9.13;;
42854;SDS011;29183;48.038;14.346;2022-08-19T14:35:36;12.18;;;9.63;;
42854;SDS011;29183;48.038;14.346;2022-08-19T14:38:05;12.07;;;9.45;;
42854;SDS011;29183;48.038;14.346;2022-08-19T14:40:34;10.48;;;9.32;;
42854;SDS011;29183;48.038;14.346;2022-08-19T14:43:03;14.30;;;9.10;;
42854;SDS011;29183;48.038;14.346;2022-08-19T14:45:34;13.85;;;9.98;;
42854;SDS011;29183;48.038;14.346;2022-08-19T14:48:06;12.48;;;9.52;;
42854;SDS011;29183;48.038;14.346;2022-08-19T14:50:45;13.95;;;9.45;;
42854;SDS011;29183;48.038;14.346;2022-08-19T14:53:15;13.30;;;9.80;;
42854;SDS011;29183;48.038;14.346;2022-08-19T14:55:45;12.38;;;8.95;;
42854;SDS011;29183;48.038;14.346;2022-08-19T14:58:15;12.45;;;9.02;;
42854;SDS011;29183;48.038;14.346;2022-08-19T15:00:56;16.63;;;9.43;;
42854;SDS011;29183;48.038;14.346;2022-08-19T15:03:27;13.25;;;10.60;;
42854;SDS011;29183;48.038;14.346;2022-08-19T15:05:56;19.13;;;12.10;;